Time;durP1;ratioP1;P1;durP2;ratioP2;P2;SDS_P1;SDS_P2;PMS_P1;PMS_P2;Temp;Humidity;BMP_temperature;BMP_pressure;BME280_temperature;BME280_humidity;BME280_pressure;Samples;Min_cycle;Max_cycle;Signal;HPM_P1;HPM_P2
2022/12/25 00:01:39;;;;;;;32.55;13.18;;;;;;;6.65;100.00;100862.78;4918366;29;20052;-80
2022/12/25 00:04:06;;;;;;;29.40;13.75;;;;;;;6.66;100.00;100851.41;4925447;29;20130;-81
2022/12/25 00:06:39;;;;;;;28.13;12.00;;;;;;;6.85;100.00;100866.34;4924514;29;20104;-83
2022/12/25 00:09:08;;;;;;;22.80;10.45;;;;;;;6.76;100.00;100860.13;4919780;29;20501;-81
2022/12/25 00:11:36;;;;;;;21.83;11.02;;;;;;;6.84;100.00;100856.91;4905526;29;20055;-82
2022/12/25 00:14:02;;;;;;;26.48;10.85;;;;;;;6.92;100.00;100868.31;4905203;29;20052;-81
2022/12/25 00:16:31;;;;;;;22.80;10.40;;;;;;;6.98;100.00;100862.63;4912463;29;20059;-82
2022/12/25 00:19:00;;;;;;;28.00;11.25;;;;;;;6.94;100.00;100866.44;4922716;29;20123;-81
2022/12/25 00:21:27;;;;;;;25.80;10.18;;;;;;;7.03;100.00;100858.81;4903537;29;20060;-81
2022/12/25 00:23:56;;;;;;;25.38;10.57;;;;;;;7.02;100.00;100860.59;4907802;29;20133;-82
2022/12/25 00:26:23;;;;;;;21.15;10.55;;;;;;;7.07;100.00;100850.63;4923623;29;20614;-82
2022/12/25 00:28:51;;;;;;;25.45;10.40;;;;;;;6.97;100.00;100860.97;4925139;29;20052;-81
2022/12/25 00:31:18;;;;;;;26.67;10.77;;;;;;;6.88;100.00;100845.28;4915955;29;20116;-82
2022/12/25 00:33:48;;;;;;;27.42;10.40;;;;;;;6.94;100.00;100850.81;4910152;29;20437;-81
2022/12/25 00:36:17;;;;;;;26.15;10.40;;;;;;;6.94;100.00;100856.03;4910625;29;20050;-81
2022/12/25 00:38:45;;;;;;;25.40;11.02;;;;;;;6.94;100.00;100858.63;4925084;29;20127;-81
2022/12/25 00:41:13;;;;;;;23.70;10.68;;;;;;;6.95;100.00;100862.03;4907115;29;20135;-82
2022/12/25 00:43:40;;;;;;;27.25;11.40;;;;;;;6.91;100.00;100856.28;4904966;29;20377;-82
2022/12/25 00:46:08;;;;;;;27.70;11.23;;;;;;;6.90;100.00;100862.44;4910030;29;20478;-82
2022/12/25 00:48:35;;;;;;;30.73;11.75;;;;;;;6.90;100.00;100864.19;4905792;29;20120;-82
2022/12/25 00:51:05;;;;;;;24.13;11.88;;;;;;;6.89;100.00;100870.34;4905210;29;20122;-82
2022/12/25 00:53:32;;;;;;;29.08;12.43;;;;;;;6.87;100.00;100875.69;4921742;29;20079;-82
2022/12/25 00:56:00;;;;;;;26.65;13.02;;;;;;;6.84;100.00;100881.13;4924220;29;20135;-81
2022/12/25 00:58:29;;;;;;;24.67;12.48;;;;;;;6.89;100.00;100881.59;4924312;29;20135;-82
2022/12/25 01:00:56;;;;;;;25.77;11.75;;;;;;;6.88;100.00;100877.34;4919812;29;20488;-81
2022/12/25 01:03:23;;;;;;;29.40;12.55;;;;;;;6.84;100.00;100882.91;4907283;29;20176;-81
2022/12/25 01:05:55;;;;;;;23.02;12.50;;;;;;;6.85;100.00;100881.97;4906684;29;20083;-82
2022/12/25 01:08:24;;;;;;;25.08;12.55;;;;;;;6.93;100.00;100884.75;4905547;29;20108;-81
2022/12/25 01:10:53;;;;;;;35.80;13.43;;;;;;;6.94;100.00;100891.63;4921508;29;20084;-82
2022/12/25 01:13:20;;;;;;;23.80;11.13;;;;;;;6.89;100.00;100881.59;4924629;29;20056;-81
2022/12/25 01:15:47;;;;;;;24.60;11.45;;;;;;;6.90;100.00;100866.81;4918145;29;20082;-82
2022/12/25 01:18:13;;;;;;;21.77;12.20;;;;;;;6.90;100.00;100885.84;4904837;29;20131;-82
2022/12/25 01:20:40;;;;;;;21.92;10.88;;;;;;;6.93;100.00;100880.38;4903743;29;20135;-82
2022/12/25 01:23:07;;;;;;;24.50;11.40;;;;;;;6.92;100.00;100883.13;4904853;29;20152;-80
2022/12/25 01:25:35;;;;;;;25.13;11.52;;;;;;;7.03;100.00;100887.44;4907810;29;20160;-83
2022/12/25 01:28:04;;;;;;;25.88;11.40;;;;;;;6.96;100.00;100889.72;4909280;29;20084;-82
2022/12/25 01:30:31;;;;;;;24.83;11.52;;;;;;;6.94;100.00;100878.59;4908728;29;20110;-83
2022/12/25 01:32:58;;;;;;;20.63;11.02;;;;;;;6.90;100.00;100883.25;4927818;29;20063;-83
2022/12/25 01:35:24;;;;;;;21.98;11.50;;;;;;;6.89;100.00;100878.97;4926349;29;20046;-83
2022/12/25 01:37:52;;;;;;;24.05;11.10;;;;;;;6.88;100.00;100881.72;4926998;29;20076;-82
2022/12/25 01:40:18;;;;;;;23.98;10.48;;;;;;;6.93;100.00;100879.56;4915124;29;20128;-82
2022/12/25 01:42:46;;;;;;;26.48;11.05;;;;;;;6.86;100.00;100874.03;4907375;29;20108;-82
2022/12/25 01:45:35;;;;;;;23.90;10.15;;;;;;;6.81;100.00;100876.19;4904997;29;20530;-83
2022/12/25 01:48:07;;;;;;;21.60;11.25;;;;;;;6.84;100.00;100868.13;4921770;29;20107;-82
2022/12/25 01:50:38;;;;;;;23.25;10.90;;;;;;;6.86;100.00;100875.81;4922832;29;20088;-82
2022/12/25 01:53:07;;;;;;;23.20;10.68;;;;;;;6.84;100.00;100878.53;4921725;29;20060;-82
2022/12/25 01:55:35;;;;;;;21.20;10.90;;;;;;;6.85;100.00;100881.97;4910159;29;20064;-82
2022/12/25 01:58:07;;;;;;;24.58;10.63;;;;;;;6.81;100.00;100888.34;4904659;29;20063;-82
2022/12/25 02:00:34;;;;;;;23.38;11.07;;;;;;;6.89;100.00;100889.38;4919133;29;20072;-83
2022/12/25 02:03:01;;;;;;;19.38;10.80;;;;;;;6.88;100.00;100885.13;4923571;29;20071;-83
2022/12/25 02:05:33;;;;;;;27.52;11.50;;;;;;;6.93;100.00;100888.19;4922291;29;20114;-83
2022/12/25 02:08:06;;;;;;;20.13;11.00;;;;;;;6.95;100.00;100895.88;4923101;29;20048;-83
2022/12/25 02:10:37;;;;;;;30.00;12.43;;;;;;;6.94;100.00;100879.44;4915360;29;20556;-84
2022/12/25 02:13:08;;;;;;;24.63;11.20;;;;;;;7.03;100.00;100900.44;4905408;29;20063;-83
2022/12/25 02:15:46;;;;;;;20.98;10.68;;;;;;;7.06;100.00;100890.59;4909147;29;20059;-83
2022/12/25 02:18:22;;;;;;;23.98;10.65;;;;;;;7.09;100.00;100886.94;4914336;29;20074;-83
2022/12/25 02:21:04;;;;;;;26.92;11.18;;;;;;;7.05;100.00;100895.94;4905406;29;20473;-83
2022/12/25 02:24:06;;;;;;;19.70;10.38;;;;;;;7.14;100.00;100897.75;4906355;29;20136;-83
2022/12/25 02:27:05;;;;;;;24.65;11.50;;;;;;;7.13;100.00;100883.09;4906724;29;20056;-83
2022/12/25 02:29:42;;;;;;;18.70;10.90;;;;;;;6.99;100.00;100879.06;4905501;29;20056;-82
2022/12/25 02:32:18;;;;;;;23.35;10.82;;;;;;;6.97;100.00;100876.59;4922283;29;20534;-82
2022/12/25 02:34:50;;;;;;;19.98;10.88;;;;;;;6.99;100.00;100890.28;4927882;29;20052;-82
2022/12/25 02:37:28;;;;;;;31.90;12.43;;;;;;;6.90;100.00;100895.41;4927983;29;20059;-82
2022/12/25 02:40:01;;;;;;;21.90;10.45;;;;;;;6.96;100.00;100894.91;4923910;29;20063;-82
2022/12/25 03:07:44;;;;;;;17.30;10.15;;;;;;;7.11;100.00;100892.81;4927769;29;20054;-82
2022/12/25 03:13:18;;;;;;;20.73;9.35;;;;;;;7.23;100.00;100883.97;4868940;29;20104;-82
2022/12/25 03:18:46;;;;;;;17.27;9.20;;;;;;;7.28;100.00;100881.81;4892332;29;20091;-82
2022/12/25 03:26:54;;;;;;;19.25;8.82;;;;;;;7.39;100.00;100875.72;4926992;29;20109;-82
2022/12/25 03:32:17;;;;;;;25.23;9.00;;;;;;;7.49;100.00;100868.78;4928102;29;20087;-85
2022/12/25 04:38:30;;;;;;;23.33;7.85;;;;;;;7.89;100.00;100843.56;4903316;29;20099;-79
2022/12/25 04:40:57;;;;;;;17.75;7.95;;;;;;;7.82;100.00;100842.44;4926852;29;20212;-80
2022/12/25 04:43:24;;;;;;;19.70;8.32;;;;;;;7.91;100.00;100835.63;4931142;29;20215;-81
2022/12/25 04:45:53;;;;;;;21.67;8.15;;;;;;;7.84;100.00;100837.09;4929783;29;20048;-81
2022/12/25 04:48:20;;;;;;;17.90;7.30;;;;;;;7.94;100.00;100836.16;4928240;29;20072;-79
2022/12/25 04:50:47;;;;;;;17.33;7.75;;;;;;;7.88;100.00;100838.47;4928543;29;20088;-80
2022/12/25 04:53:19;;;;;;;23.05;7.90;;;;;;;7.83;100.00;100833.66;4927802;29;20083;-80
2022/12/25 04:56:01;;;;;;;23.35;7.90;;;;;;;7.72;100.00;100835.53;4918319;29;20067;-79
2022/12/25 04:58:31;;;;;;;18.98;7.57;;;;;;;7.69;100.00;100825.41;4929710;29;20048;-80
2022/12/25 05:01:05;;;;;;;18.15;7.50;;;;;;;7.69;100.00;100833.22;4927747;29;20060;-81
2022/12/25 05:03:33;;;;;;;16.52;8.00;;;;;;;7.59;100.00;100830.56;4926628;29;20048;-80
2022/12/25 05:06:05;;;;;;;21.02;8.00;;;;;;;7.44;100.00;100819.69;4926240;29;20052;-81
2022/12/25 05:08:34;;;;;;;15.47;7.87;;;;;;;7.43;100.00;100838.88;4925228;29;20059;-79
2022/12/25 05:11:08;;;;;;;13.40;7.60;;;;;;;7.50;100.00;100836.59;4920376;29;20563;-79
2022/12/25 05:13:35;;;;;;;17.08;7.72;;;;;;;7.48;100.00;100825.47;4920101;29;20079;-79
2022/12/25 05:16:06;;;;;;;18.30;7.68;;;;;;;7.39;100.00;100823.66;4919462;29;20084;-79
2022/12/25 05:18:33;;;;;;;15.15;7.43;;;;;;;7.44;100.00;100817.09;4919417;29;20111;-79
2022/12/25 05:21:00;;;;;;;18.63;7.00;;;;;;;7.37;100.00;100800.34;4919756;29;20080;-79
2022/12/25 05:23:26;;;;;;;17.98;7.20;;;;;;;7.41;100.00;100806.94;4925573;29;20052;-79
2022/12/25 05:25:53;;;;;;;14.38;7.10;;;;;;;7.40;100.00;100789.69;4926695;29;20056;-78
2022/12/25 05:28:20;;;;;;;18.88;7.63;;;;;;;7.43;100.00;100792.03;4920140;29;20075;-78
2022/12/25 05:30:46;;;;;;;21.52;8.13;;;;;;;7.40;100.00;100786.25;4917461;29;20052;-78
2022/12/25 05:33:14;;;;;;;21.35;8.00;;;;;;;7.32;100.00;100781.69;4916526;29;20087;-78
2022/12/25 05:35:41;;;;;;;17.05;7.22;;;;;;;7.31;100.00;100775.66;4916662;29;20056;-79
2022/12/25 05:38:08;;;;;;;13.95;7.97;;;;;;;7.34;100.00;100785.00;4918797;29;20056;-79
2022/12/25 05:40:38;;;;;;;19.33;7.38;;;;;;;7.20;100.00;100793.97;4920643;29;20086;-79
2022/12/25 05:43:05;;;;;;;15.35;7.47;;;;;;;7.15;100.00;100787.50;4919872;29;20099;-78
2022/12/25 05:45:32;;;;;;;21.52;7.43;;;;;;;7.21;100.00;100800.81;4920253;29;20066;-79
2022/12/25 05:47:58;;;;;;;17.45;7.07;;;;;;;7.35;100.00;100794.44;4917525;29;20135;-78
2022/12/25 05:50:26;;;;;;;13.23;7.43;;;;;;;7.42;100.00;100787.78;4918641;29;20470;-79
2022/12/25 05:52:53;;;;;;;16.42;7.22;;;;;;;7.46;100.00;100783.94;4921519;29;20091;-79
2022/12/25 05:55:19;;;;;;;12.13;6.88;;;;;;;7.43;100.00;100779.00;4921572;29;20083;-80
2022/12/25 05:57:46;;;;;;;16.25;7.05;;;;;;;7.43;100.00;100783.38;4921512;29;20059;-79
2022/12/25 06:00:13;;;;;;;12.68;7.25;;;;;;;7.54;100.00;100780.69;4922552;29;20135;-79
2022/12/25 06:02:40;;;;;;;16.60;8.90;;;;;;;7.51;100.00;100773.97;4924464;29;20059;-80
2022/12/25 06:05:08;;;;;;;15.35;6.60;;;;;;;7.50;100.00;100767.09;4924172;29;20087;-79
2022/12/25 06:07:36;;;;;;;15.82;6.88;;;;;;;7.45;100.00;100756.25;4924878;29;20052;-80
2022/12/25 06:10:03;;;;;;;15.63;6.82;;;;;;;7.45;100.00;100760.66;4923529;29;20084;-79
2022/12/25 06:12:30;;;;;;;13.13;6.78;;;;;;;7.42;100.00;100756.53;4922766;29;20223;-78
2022/12/25 06:14:56;;;;;;;12.90;7.13;;;;;;;7.42;100.00;100771.31;4925447;29;20170;-79
2022/12/25 06:17:25;;;;;;;15.27;6.63;;;;;;;7.40;100.00;100771.44;4922616;29;20060;-78
2022/12/25 06:19:52;;;;;;;15.77;7.15;;;;;;;7.36;100.00;100772.66;4924512;29;20056;-79
2022/12/25 06:22:18;;;;;;;19.95;7.30;;;;;;;7.36;100.00;100762.25;4932685;29;20136;-80
2022/12/25 06:24:46;;;;;;;19.10;7.22;;;;;;;7.38;100.00;100759.53;4938000;29;20088;-80
2022/12/25 06:27:13;;;;;;;18.42;7.85;;;;;;;7.37;100.00;100752.66;4938146;29;20353;-80
2022/12/25 06:29:42;;;;;;;19.30;8.65;;;;;;;7.36;100.00;100751.84;4937475;29;20048;-79
2022/12/25 06:32:09;;;;;;;18.88;7.35;;;;;;;7.39;100.00;100756.78;4929738;29;20460;-80
2022/12/25 06:34:36;;;;;;;13.57;7.38;;;;;;;7.40;100.00;100737.59;4936168;29;20071;-80
2022/12/25 06:37:02;;;;;;;18.90;7.85;;;;;;;7.47;100.00;100736.13;4937114;29;20059;-80
2022/12/25 06:39:29;;;;;;;17.23;8.60;;;;;;;7.49;100.00;100718.59;4935533;29;20052;-79
2022/12/25 06:41:57;;;;;;;21.85;9.18;;;;;;;7.51;100.00;100700.22;4930297;29;20052;-79
2022/12/25 06:44:24;;;;;;;22.77;9.85;;;;;;;7.55;100.00;100709.44;4922494;29;20485;-78
2022/12/25 06:46:52;;;;;;;20.25;9.65;;;;;;;7.56;100.00;100711.06;4919965;29;20052;-78
2022/12/25 06:49:19;;;;;;;20.77;10.57;;;;;;;7.53;100.00;100725.19;4920489;29;20135;-78
2022/12/25 06:51:45;;;;;;;22.60;10.15;;;;;;;7.62;100.00;100732.16;4920162;29;20201;-78
2022/12/25 06:54:12;;;;;;;21.88;10.18;;;;;;;7.70;100.00;100725.47;4922283;29;20052;-79
2022/12/25 06:56:39;;;;;;;29.60;10.23;;;;;;;7.74;100.00;100724.22;4920170;29;20128;-78
2022/12/25 06:59:09;;;;;;;19.88;9.70;;;;;;;7.85;100.00;100731.94;4919870;29;20127;-78
2022/12/25 07:01:39;;;;;;;22.10;9.90;;;;;;;7.84;100.00;100709.44;4921810;29;20495;-78
2022/12/25 07:04:14;;;;;;;16.77;8.98;;;;;;;7.93;100.00;100704.25;4921929;29;20052;-79
2022/12/25 07:06:40;;;;;;;20.70;9.43;;;;;;;8.01;100.00;100679.28;4922299;29;20071;-79
2022/12/25 07:09:07;;;;;;;21.17;9.20;;;;;;;8.08;100.00;100669.94;4921890;29;20150;-80
2022/12/25 07:11:34;;;;;;;19.38;8.65;;;;;;;8.14;100.00;100664.97;4920399;29;20392;-78
2022/12/25 07:14:00;;;;;;;25.42;9.75;;;;;;;8.14;100.00;100654.56;4920278;29;20094;-78
2022/12/25 07:16:28;;;;;;;24.02;9.68;;;;;;;8.12;100.00;100660.88;4919380;29;20055;-78
2022/12/25 07:18:55;;;;;;;20.02;9.30;;;;;;;8.09;100.00;100677.59;4918874;29;20527;-78
2022/12/25 07:21:21;;;;;;;20.45;9.68;;;;;;;8.11;100.00;100680.06;4920207;29;20104;-78
2022/12/25 07:23:50;;;;;;;18.65;9.73;;;;;;;8.10;100.00;100674.03;4920468;29;20669;-78
2022/12/25 07:26:17;;;;;;;20.45;9.85;;;;;;;8.12;100.00;100664.28;4921489;29;20084;-79
2022/12/25 07:28:43;;;;;;;23.92;11.55;;;;;;;8.15;100.00;100655.38;4920693;29;20657;-79
2022/12/25 07:31:12;;;;;;;19.80;9.77;;;;;;;8.14;100.00;100658.94;4920177;29;20055;-79
2022/12/25 07:33:41;;;;;;;19.67;9.65;;;;;;;8.13;100.00;100657.31;4919977;29;20052;-79
2022/12/25 07:36:10;;;;;;;16.67;8.85;;;;;;;8.17;100.00;100651.66;4919169;29;20088;-78
2022/12/25 07:38:37;;;;;;;19.25;9.00;;;;;;;8.17;100.00;100659.50;4919287;29;20429;-79
2022/12/25 07:41:04;;;;;;;17.77;9.02;;;;;;;8.21;100.00;100658.25;4919379;29;20692;-78
2022/12/25 07:43:30;;;;;;;22.75;9.65;;;;;;;8.21;100.00;100650.44;4919373;29;20446;-79
2022/12/25 07:45:58;;;;;;;22.73;9.02;;;;;;;8.24;100.00;100657.97;4918894;29;20587;-79
2022/12/25 07:48:27;;;;;;;18.92;8.38;;;;;;;8.26;100.00;100653.44;4919359;29;20138;-78
2022/12/25 07:50:59;;;;;;;19.48;8.05;;;;;;;8.28;100.00;100669.78;4920355;29;20495;-79
2022/12/25 07:53:26;;;;;;;19.20;9.13;;;;;;;8.30;100.00;100660.03;4921717;29;20080;-80
2022/12/25 07:55:57;;;;;;;18.40;8.65;;;;;;;8.31;100.00;100666.06;4921174;29;20060;-80
2022/12/25 07:58:24;;;;;;;17.77;9.95;;;;;;;8.35;100.00;100661.41;4921039;29;20119;-79
2022/12/25 08:00:51;;;;;;;17.27;9.25;;;;;;;8.36;100.00;100652.63;4921052;29;20075;-79
2022/12/25 08:03:18;;;;;;;17.15;10.63;;;;;;;8.29;100.00;100632.31;4921099;29;20099;-79
2022/12/25 08:05:44;;;;;;;17.80;9.63;;;;;;;8.37;100.00;100643.84;4920983;29;20479;-79
2022/12/25 08:08:13;;;;;;;20.13;8.90;;;;;;;8.43;100.00;100640.69;4922231;29;20090;-78
2022/12/25 08:10:45;;;;;;;15.95;8.73;;;;;;;8.42;100.00;100645.06;4919935;29;20135;-79
2022/12/25 08:13:12;;;;;;;17.65;9.10;;;;;;;8.45;100.00;100633.53;4920135;29;20142;-80
2022/12/25 08:15:38;;;;;;;21.65;9.40;;;;;;;8.46;100.00;100624.75;4919950;29;20547;-78
2022/12/25 08:18:05;;;;;;;17.52;9.82;;;;;;;8.46;100.00;100635.19;4919805;29;20087;-79
2022/12/25 08:20:32;;;;;;;18.88;9.93;;;;;;;8.47;100.00;100631.63;4920399;29;20067;-79
2022/12/25 08:22:58;;;;;;;19.23;9.88;;;;;;;8.47;100.00;100639.44;4919712;29;20134;-80
2022/12/25 08:25:30;;;;;;;19.13;11.20;;;;;;;8.41;100.00;100624.34;4921630;29;20135;-79
2022/12/25 08:27:57;;;;;;;19.35;10.43;;;;;;;8.45;100.00;100615.28;4920464;29;20070;-79
2022/12/25 08:30:24;;;;;;;18.73;10.02;;;;;;;8.42;100.00;100599.94;4920548;29;20103;-79
2022/12/25 08:32:51;;;;;;;21.70;10.10;;;;;;;8.39;100.00;100601.03;4921313;29;20055;-79
2022/12/25 08:35:18;;;;;;;22.17;10.30;;;;;;;8.37;100.00;100597.75;4922767;29;20076;-78
2022/12/25 08:37:45;;;;;;;16.55;9.80;;;;;;;8.44;100.00;100626.69;4924547;29;20056;-78
2022/12/25 08:40:12;;;;;;;16.92;9.95;;;;;;;8.44;100.00;100634.50;4923595;29;20068;-79
2022/12/25 08:42:40;;;;;;;15.20;9.57;;;;;;;8.48;100.00;100646.28;4919814;29;20094;-78
2022/12/25 08:45:08;;;;;;;13.52;9.15;;;;;;;8.52;100.00;100645.03;4919208;29;20508;-78
2022/12/25 08:47:37;;;;;;;16.50;8.95;;;;;;;8.56;100.00;100654.22;4901679;29;20080;-79
2022/12/25 08:50:08;;;;;;;18.85;9.32;;;;;;;8.57;100.00;100661.06;4901577;29;20115;-79
2022/12/25 08:52:35;;;;;;;15.50;9.18;;;;;;;8.59;100.00;100652.13;4901670;29;20567;-79
2022/12/25 08:55:01;;;;;;;13.90;9.18;;;;;;;8.67;100.00;100648.00;4901892;29;20139;-81
2022/12/25 08:57:28;;;;;;;13.55;8.05;;;;;;;8.73;100.00;100631.78;4902600;29;20109;-81
2022/12/25 08:59:57;;;;;;;17.67;7.88;;;;;;;8.73;100.00;100630.00;4904277;29;20052;-81
2022/12/25 09:02:23;;;;;;;14.18;8.02;;;;;;;8.73;100.00;100626.56;4922373;29;20135;-82
2022/12/25 09:04:50;;;;;;;16.77;7.95;;;;;;;8.76;100.00;100621.88;4923570;29;20075;-81
2022/12/25 09:07:23;;;;;;;12.63;7.75;;;;;;;8.76;100.00;100614.03;4922198;29;20060;-82
2022/12/25 09:09:51;;;;;;;16.13;8.13;;;;;;;8.79;100.00;100632.03;4922408;29;20044;-82
2022/12/25 09:12:18;;;;;;;15.02;8.25;;;;;;;8.79;100.00;100639.84;4921914;29;20106;-83
2022/12/25 09:14:45;;;;;;;12.95;7.75;;;;;;;8.78;100.00;100640.81;4921915;29;20085;-82
2022/12/25 09:17:17;;;;;;;15.40;8.32;;;;;;;8.72;100.00;100622.31;4921487;29;20060;-82
2022/12/25 09:19:44;;;;;;;13.68;8.57;;;;;;;8.77;100.00;100636.56;4921960;29;20060;-82
2022/12/25 09:22:11;;;;;;;14.77;8.75;;;;;;;8.73;100.00;100640.41;4921889;29;20397;-81
2022/12/25 09:24:38;;;;;;;15.52;7.90;;;;;;;8.76;100.00;100650.56;4923044;29;20076;-82
2022/12/25 09:27:07;;;;;;;19.70;8.13;;;;;;;8.75;100.00;100654.16;4923398;29;20530;-83
2022/12/25 09:29:48;;;;;;;15.80;8.00;;;;;;;8.77;100.00;100667.88;4920125;29;20103;-79
2022/12/25 09:35:46;;;;;;;19.95;9.68;;;;;;;8.73;100.00;100676.94;4919369;29;20253;-83
2022/12/25 09:38:31;;;;;;;14.13;7.82;;;;;;;8.57;100.00;100651.47;4925168;29;20082;-81
2022/12/25 09:41:19;;;;;;;11.82;7.38;;;;;;;8.56;100.00;100669.84;4931067;29;20044;-81
2022/12/25 09:46:54;;;;;;;17.58;8.02;;;;;;;8.56;100.00;100685.50;4918873;29;20473;-81
2022/12/25 09:49:35;;;;;;;12.07;8.68;;;;;;;8.69;100.00;100709.50;4917973;29;20052;-81
2022/12/25 09:52:14;;;;;;;14.63;7.68;;;;;;;8.66;100.00;100696.75;4916685;29;20052;-80
2022/12/25 09:54:48;;;;;;;13.27;8.70;;;;;;;8.68;100.00;100694.00;4930028;29;20333;-81
2022/12/25 09:58:19;;;;;;;;;;;;;;;;;;;;;
2022/12/25 10:01:25;;;;;;;15.23;8.10;;;;;;;8.66;100.00;100686.31;4860599;29;20193;-85
2022/12/25 10:11:18;;;;;;;15.93;8.52;;;;;;;8.59;100.00;100680.00;4792119;29;20051;-85
2022/12/25 10:37:54;;;;;;;17.13;8.70;;;;;;;8.71;100.00;100618.88;4925466;29;20068;-84
2022/12/25 10:40:47;;;;;;;15.38;8.52;;;;;;;8.80;100.00;100615.41;4967717;28;20082;-84
2022/12/25 10:46:53;;;;;;;15.02;7.78;;;;;;;8.88;100.00;100619.91;4897073;29;20057;-84
2022/12/25 10:49:34;;;;;;;16.10;8.82;;;;;;;8.91;100.00;100623.03;4899512;29;20525;-82
2022/12/25 10:52:53;;;;;;;17.88;7.93;;;;;;;8.90;100.00;100628.41;4933983;28;20054;-83
2022/12/25 10:56:12;;;;;;;13.32;8.25;;;;;;;8.94;100.00;100633.19;4930847;29;20059;-84
2022/12/25 11:01:39;;;;;;;16.60;9.38;;;;;;;8.89;100.00;100617.16;4947209;28;20051;-82
2022/12/25 11:04:31;;;;;;;24.23;9.48;;;;;;;8.85;100.00;100610.56;4966729;28;20087;-82
2022/12/25 11:07:37;;;;;;;17.50;9.85;;;;;;;8.83;100.00;100585.59;4965948;28;20109;-83
2022/12/25 11:14:44;;;;;;;18.73;10.00;;;;;;;8.88;100.00;100545.06;4906625;29;20063;-83
2022/12/25 11:17:29;;;;;;;19.20;11.25;;;;;;;8.85;100.00;100514.03;4918408;29;20060;-84
2022/12/25 11:20:05;;;;;;;22.55;14.18;;;;;;;8.85;100.00;100508.81;4919343;29;20056;-83
2022/12/25 11:23:04;;;;;;;22.60;15.50;;;;;;;8.91;100.00;100521.28;4923526;28;20542;-83
2022/12/25 11:35:49;;;;;;;19.42;13.48;;;;;;;8.92;100.00;100483.78;4888756;29;20048;-82
2022/12/25 11:44:49;;;;;;;18.42;12.40;;;;;;;8.96;100.00;100469.47;4886947;29;20135;-83
2022/12/25 11:47:20;;;;;;;20.92;12.48;;;;;;;8.89;100.00;100462.38;4901158;29;20126;-82
2022/12/25 11:49:53;;;;;;;20.08;11.68;;;;;;;8.99;100.00;100470.91;4951922;29;20099;-84
2022/12/25 11:52:22;;;;;;;16.50;11.30;;;;;;;9.01;100.00;100465.56;4953507;29;20063;-82
2022/12/25 11:54:55;;;;;;;19.80;10.82;;;;;;;8.97;100.00;100465.88;4956747;28;20054;-82
2022/12/25 11:57:26;;;;;;;17.05;10.55;;;;;;;8.99;100.00;100460.47;4955143;29;20040;-82
2022/12/25 11:59:57;;;;;;;20.98;10.80;;;;;;;8.98;100.00;100449.22;4957555;28;20050;-80
2022/12/25 12:02:32;;;;;;;18.92;11.45;;;;;;;9.02;100.00;100441.09;4952476;29;20171;-81
2022/12/25 12:05:13;;;;;;;19.20;10.93;;;;;;;9.06;100.00;100447.66;4965290;28;20051;-82
2022/12/25 12:15:08;;;;;;;;;;;;;;;;;;;;;
2022/12/25 12:21:59;;;;;;;22.13;10.93;;;;;;;9.19;100.00;100422.00;4934749;29;20089;-81
2022/12/25 12:28:26;;;;;;;17.90;11.93;;;;;;;9.09;100.00;100405.59;4962084;28;20541;-84
2022/12/25 12:31:37;;;;;;;18.17;12.07;;;;;;;9.20;100.00;100424.44;4965205;28;20107;-80
2022/12/25 12:34:12;;;;;;;21.73;13.77;;;;;;;9.15;100.00;100411.03;4967300;28;20062;-81
2022/12/25 12:50:40;;;;;;;24.23;14.45;;;;;;;9.27;100.00;100391.53;4885087;29;20056;-82
2022/12/25 12:53:33;;;;;;;20.25;14.43;;;;;;;9.28;100.00;100376.69;4911230;29;20064;-82
2022/12/25 12:56:32;;;;;;;21.10;14.02;;;;;;;9.31;100.00;100373.78;4917592;29;20058;-81
2022/12/25 12:59:43;;;;;;;22.35;12.80;;;;;;;9.41;100.00;100371.88;4853215;29;20064;-81
2022/12/25 13:09:34;;;;;;;16.98;10.23;;;;;;;9.50;100.00;100357.88;4876114;29;20055;-81
2022/12/25 13:26:00;;;;;;;21.02;10.55;;;;;;;9.54;100.00;100333.06;4805506;29;20088;-81
2022/12/25 13:32:25;;;;;;;16.83;9.82;;;;;;;9.65;100.00;100338.03;4833193;29;20060;-83
2022/12/25 13:35:19;;;;;;;14.48;9.75;;;;;;;9.68;100.00;100341.31;4808633;29;20097;-82
2022/12/25 13:51:46;;;;;;;14.18;10.43;;;;;;;9.85;100.00;100358.69;4780590;29;20057;-80
2022/12/25 13:54:57;;;;;;;17.08;10.43;;;;;;;9.70;100.00;100331.53;4842760;29;20129;-82
2022/12/25 13:58:14;;;;;;;13.10;10.18;;;;;;;9.83;100.00;100339.75;4843423;29;20049;-81
2022/12/25 14:07:30;;;;;;;15.02;9.95;;;;;;;9.86;100.00;100358.53;4908698;29;20580;-83
2022/12/25 14:10:54;;;;;;;;;;;;;;;;;;;;;
2022/12/25 14:13:54;;;;;;;14.32;9.90;;;;;;;9.88;100.00;100361.00;4907449;29;20041;-82
2022/12/25 14:16:28;;;;;;;15.90;10.80;;;;;;;9.89;100.00;100353.00;4946000;28;20051;-83
2022/12/25 14:19:34;;;;;;;16.98;10.75;;;;;;;9.76;100.00;100349.19;4950872;28;20071;-81
2022/12/25 14:31:53;;;;;;;18.02;10.65;;;;;;;9.80;100.00;100334.81;4950226;28;20114;-83
2022/12/25 14:34:36;;;;;;;15.75;11.55;;;;;;;9.87;100.00;100344.50;4962173;28;20442;-82
2022/12/25 14:40:42;;;;;;;;;;;;;;;;;;;;;
2022/12/25 14:43:22;;;;;;;18.15;11.20;;;;;;;9.80;100.00;100353.13;4974416;23;20110;-81
2022/12/25 14:45:56;;;;;;;16.55;12.60;;;;;;;9.84;100.00;100359.66;4981484;28;20043;-81
2022/12/25 14:48:25;;;;;;;15.77;11.93;;;;;;;9.84;100.00;100362.28;4966194;28;20047;-81
2022/12/25 14:51:01;;;;;;;17.17;12.23;;;;;;;9.93;100.00;100353.47;4973739;28;20054;-80
2022/12/25 14:53:35;;;;;;;18.98;13.18;;;;;;;9.92;100.00;100330.94;4972495;28;20057;-81
2022/12/25 14:56:03;;;;;;;19.58;12.38;;;;;;;9.96;100.00;100325.22;4989499;28;20046;-80
2022/12/25 14:58:32;;;;;;;23.17;13.20;;;;;;;9.94;100.00;100316.72;4984287;28;20101;-81
2022/12/25 15:01:01;;;;;;;19.25;12.88;;;;;;;9.98;100.00;100332.91;4983291;28;20050;-81
2022/12/25 15:03:30;;;;;;;17.90;12.25;;;;;;;10.02;100.00;100336.03;4977030;28;21513;-80
2022/12/25 15:06:01;;;;;;;18.80;12.55;;;;;;;10.05;100.00;100336.53;4977590;28;20043;-81
2022/12/25 15:08:29;;;;;;;20.65;12.35;;;;;;;10.08;100.00;100320.53;4982261;28;20047;-81
2022/12/25 15:10:57;;;;;;;16.88;12.43;;;;;;;10.16;100.00;100315.31;4974198;28;20055;-80
2022/12/25 15:13:24;;;;;;;15.70;11.88;;;;;;;10.19;100.00;100307.19;4979750;28;20075;-81
2022/12/25 15:15:56;;;;;;;16.20;12.40;;;;;;;10.16;100.00;100315.31;4980847;28;20047;-81
2022/12/25 15:18:25;;;;;;;15.60;12.00;;;;;;;10.17;100.00;100303.88;4975307;28;20070;-80
2022/12/25 15:20:53;;;;;;;17.13;11.60;;;;;;;10.23;100.00;100295.41;4982891;28;20043;-81
2022/12/25 15:23:24;;;;;;;17.40;11.75;;;;;;;10.22;100.00;100285.94;4986733;28;20089;-81
2022/12/25 15:25:51;;;;;;;17.85;10.68;;;;;;;10.38;100.00;100300.84;4982770;28;20057;-81
2022/12/25 15:28:18;;;;;;;15.88;11.48;;;;;;;10.27;100.00;100303.75;4979295;28;20482;-81
2022/12/25 15:30:45;;;;;;;22.48;12.35;;;;;;;10.25;100.00;100300.50;4980204;28;20046;-82
2022/12/25 15:33:14;;;;;;;15.57;11.85;;;;;;;10.20;100.00;100298.34;4974149;28;20062;-82
2022/12/25 15:35:43;;;;;;;16.15;10.88;;;;;;;10.28;100.00;100303.59;4971775;28;20054;-82
2022/12/25 15:38:10;;;;;;;16.60;10.93;;;;;;;10.34;100.00;100299.53;4972083;28;20058;-81
2022/12/25 15:40:38;;;;;;;19.77;11.80;;;;;;;10.27;100.00;100298.53;4971934;28;20152;-82
2022/12/25 15:43:07;;;;;;;15.68;11.00;;;;;;;10.18;100.00;100279.38;4973382;28;20051;-81
2022/12/25 15:46:06;;;;;;;18.48;11.85;;;;;;;10.13;100.00;100281.63;4967323;28;20102;-80
2022/12/25 15:48:33;;;;;;;18.23;11.70;;;;;;;10.13;100.00;100297.31;4973287;28;20062;-80
2022/12/25 15:50:59;;;;;;;16.40;11.75;;;;;;;10.05;100.00;100289.47;4975748;28;20047;-81
2022/12/25 15:53:26;;;;;;;20.67;11.93;;;;;;;10.10;100.00;100274.13;4983153;28;20078;-81
2022/12/25 15:55:55;;;;;;;17.88;11.45;;;;;;;10.24;100.00;100283.97;4980919;28;20101;-81
2022/12/25 15:58:22;;;;;;;15.60;11.43;;;;;;;10.19;100.00;100277.56;4986358;28;20043;-81